Impacts TAF Board
For situational awareness. Not to be used for flight planning purposes.
IDs:

KMSY - New Orleans/Armstron, LA, US

Issued at 1132 UTC 16 Aug 2022
Updated at 1422 UTC 16 Aug 2022
Potential Impact None Slight Moderate High
Time1353Z 16/15Z 16/16Z 16/17Z 16/18Z 16/19Z 16/20Z 16/21Z 16/22Z 16/23Z 17/00Z 17/01Z 17/02Z 17/03Z>>
Type OBS PRVL PRVL PRVL PRVL PRVL PRVL PRVL PRVL PRVL PRVL PRVL PRVL PRVL
VIS 10 >6 >6 >6 >6 >6 >6 >6 >6 >6 >6 >6 >6 >6
CIG 250 -- -- -- -- -- -- -- -- -- -- -- -- --
Cover BKN SCT SCT SCT SCT SCT SCT SCT SCT SCT SCT SCT SCT SCT
FltCat VFR VFR VFR VFR VFR VFR VFR VFR VFR VFR VFR VFR VFR VFR
WX -- -- VCSH VCSH VCSH VCSH VCSH VCSH VCSH VCSH -- -- -- --
WDir 300 250 300 300 300 300 300 300 300 300 290 290 290 290
WSpd 9 5 6 6 6 6 6 6 6 6 7 7 7 7
WGst -- -- -- -- -- -- -- -- -- -- -- -- -- --
WSHgt -- -- -- -- -- -- -- -- -- -- -- -- -- --
WSDir -- -- -- -- -- -- -- -- -- -- -- -- -- --
WSSpd -- -- -- -- -- -- -- -- -- -- -- -- -- --
R02/20
XWnd 9 4 6 6 6 6 6 6 6 6 7 7 7 7
HWnd 2 -3 2 2 2 2 2 2 2 2 1 1 1 1
R11/29
XWnd 2 -3 2 2 2 2 2 2 2 2 1 1 1 1
HWnd -9 -4 -6 -6 -6 -6 -6 -6 -6 -6 -7 -7 -7 -7
Raw TAF
KMSY 161132Z 1612/1718 25005KT P6SM SCT250
  FM161600 30006KT P6SM VCSH SCT050
  FM170000 29007KT P6SM SCT025


Raw METAR
KMSY 161353Z COR 30009KT 10SM FEW015 BKN250 29/25 A2996 RMK AO2 SLP148 T02940250
KMSY 161253Z 28007KT 10SM FEW015 BKN250 28/26 A2994 RMK AO2 SLP142 T02780256
KMSY 161153Z 26004KT 10SM FEW015 BKN250 26/25 A2994 RMK AO2 SLP140 T02610250 10267 20261 53002

METAR Board
Radar Display
Forecast Discussion
For situational awareness. Not to be used for flight planning purposes.